ADDS METAR Data INFO
IDs: Format: Raw Decoded Include TAF

Data at: 2230 UTC 11 Dec 2017

KLHM 112215Z AUTO 00000KT 10SM CLR 16/00 A3029 RMK AO1
KLHM 112155Z AUTO 00000KT 10SM CLR 16/02 A3029 RMK AO1
KLHM 112135Z AUTO 00000KT 10SM CLR 15/03 A3029 RMK AO1
KLHM 112115Z AUTO 00000KT 10SM CLR 15/02 A3030 RMK AO1
KLHM 112055Z AUTO 00000KT 10SM CLR 14/03 A3030 RMK AO1
KLHM 112035Z AUTO 00000KT 10SM CLR 13/01 A3031 RMK AO1
KLHM 112015Z AUTO 35003KT 10SM CLR 13/00 A3032 RMK AO1
KLHM 111955Z AUTO 00000KT 10SM CLR 12/00 A3033 RMK AO1
KLHM 111935Z AUTO 02003KT 10SM CLR 12/01 A3033 RMK AO1
KLHM 111915Z AUTO 00000KT 10SM CLR 10/02 A3035 RMK AO1
KLHM 111855Z AUTO 00000KT 10SM CLR 09/02 A3035 RMK AO1
KLHM 111835Z AUTO 00000KT 10SM CLR 08/02 A3035 RMK AO1
KLHM 111815Z AUTO 00000KT 10SM CLR 07/03 A3035 RMK AO1
KLHM 111755Z AUTO 00000KT 10SM CLR 06/02 A3035 RMK AO1
KLHM 111735Z AUTO 00000KT 10SM CLR 05/03 A3035 RMK AO1
KLHM 111715Z AUTO 00000KT 10SM CLR 03/02 A3034 RMK AO1
KLHM 111655Z AUTO 00000KT 10SM CLR 02/01 A3033 RMK AO1
KLHM 111635Z AUTO 00000KT 10SM CLR 00/00 A3033 RMK AO1
KLHM 111615Z AUTO 00000KT 10SM CLR 00/00 A3032 RMK AO1
KLHM 111555Z AUTO 09004KT 10SM CLR M01/M01 A3032 RMK AO1
KLHM 111535Z AUTO 09004KT 10SM CLR M02/M03 A3032 RMK AO1
KLHM 111515Z AUTO 08004KT 10SM CLR M02/M03 A3032 RMK AO1
KLHM 111455Z AUTO 00000KT 10SM CLR 00/M01 A3032 RMK AO1
KLHM 111435Z AUTO 00000KT 10SM CLR 00/M01 A3031 RMK AO1
KLHM 111415Z AUTO 00000KT 10SM CLR M01/M01 A3031 RMK AO1
KLHM 111355Z AUTO 00000KT 10SM CLR M01/M01 A3030 RMK AO1
KLHM 111335Z AUTO 08004KT 10SM CLR 00/00 A3030 RMK AO1
KLHM 111315Z AUTO 06003KT 10SM CLR M01/M01 A3030 RMK AO1
KLHM 111255Z AUTO 00000KT 10SM CLR M01/M01 A3030 RMK AO1
KLHM 111235Z AUTO 00000KT 10SM CLR 00/00 A3030 RMK AO1
KLHM 111215Z AUTO 00000KT 10SM CLR 00/00 A3030 RMK AO1
KLHM 111155Z AUTO 00000KT 10SM CLR 01/00 A3030 RMK AO1
KLHM 111135Z AUTO 00000KT 10SM CLR 01/00 A3030 RMK AO1
KLHM 111115Z AUTO 00000KT 10SM CLR 01/00 A3030 RMK AO1
KLHM 111055Z AUTO 00000KT 10SM CLR 01/01 A3030 RMK AO1
KLHM 111035Z AUTO 04003KT 10SM CLR 00/00 A3029 RMK AO1
KLHM 111015Z AUTO 06004KT 10SM CLR 00/00 A3029 RMK AO1
KLHM 110955Z AUTO 06005KT 10SM CLR 00/00 A3029 RMK AO1
KLHM 110935Z AUTO 06005KT 10SM CLR 00/00 A3028 RMK AO1
KLHM 110915Z AUTO 07006KT 10SM CLR 00/00 A3028 RMK AO1
KLHM 110855Z AUTO 06005KT 10SM CLR 00/00 A3028 RMK AO1
KLHM 110835Z AUTO 06004KT 10SM CLR 00/00 A3027 RMK AO1
KLHM 110815Z AUTO 07004KT 10SM CLR 00/00 A3027 RMK AO1
KLHM 110755Z AUTO 06004KT 10SM CLR 00/00 A3027 RMK AO1
KLHM 110735Z AUTO 08003KT 10SM CLR 00/00 A3027 RMK AO1
KLHM 110715Z AUTO 06003KT 10SM CLR 00/00 A3027 RMK AO1
KLHM 110655Z AUTO 17003KT 10SM CLR 01/01 A3027 RMK AO1
KLHM 110635Z AUTO 00000KT 10SM CLR 00/00 A3027 RMK AO1
KLHM 110615Z AUTO 00000KT 10SM CLR 00/00 A3026 RMK AO1
KLHM 110555Z AUTO 00000KT 10SM CLR 01/01 A3026 RMK AO1
KLHM 110535Z AUTO 00000KT 10SM CLR 02/01 A3025 RMK AO1
KLHM 110515Z AUTO 00000KT 10SM CLR 02/01 A3024 RMK AO1
KLHM 110455Z AUTO 00000KT 10SM CLR 02/01 A3024 RMK AO1
KLHM 110435Z AUTO 08003KT 10SM CLR 02/01 A3023 RMK AO1
KLHM 110415Z AUTO 08003KT 10SM CLR 02/01 A3022 RMK AO1
KLHM 110355Z AUTO 06003KT 10SM CLR 03/02 A3022 RMK AO1
KLHM 110335Z AUTO 06005KT 10SM CLR 03/02 A3022 RMK AO1
KLHM 110315Z AUTO 07003KT 10SM CLR 05/02 A3022 RMK AO1
KLHM 110255Z AUTO 05003KT 10SM CLR 05/02 A3022 RMK AO1
KLHM 110235Z AUTO 05004KT 10SM CLR 08/02 A3022 RMK AO1
KLHM 110215Z AUTO 00000KT 10SM CLR 08/03 A3022 RMK AO1
KLHM 110155Z AUTO 00000KT 10SM CLR 08/02 A3022 RMK AO1
KLHM 110135Z AUTO 01003KT 10SM CLR 10/02 A3022 RMK AO1
KLHM 110115Z AUTO 36003KT 10SM CLR 12/02 A3023 RMK AO1
KLHM 110055Z AUTO 00000KT 10SM CLR 13/02 A3023 RMK AO1
KLHM 110035Z AUTO 00000KT 10SM CLR 14/03 A3022 RMK AO1
KLHM 110015Z AUTO 00000KT 10SM CLR 15/03 A3023 RMK AO1
KLHM 102355Z AUTO 00000KT 10SM CLR 16/02 A3023 RMK AO1
KLHM 102335Z AUTO 00000KT 10SM CLR 17/01 A3023 RMK AO1
KLHM 102315Z AUTO 00000KT 10SM CLR 17/00 A3023 RMK AO1
KLHM 102255Z AUTO 00000KT 10SM CLR 17/00 A3024 RMK AO1
KLHM 102235Z AUTO 00000KT 10SM CLR 16/00 A3024 RMK AO1
KLHM 102215Z AUTO 34003KT 10SM CLR 16/00 A3024 RMK AO1
KLHM 102155Z AUTO 32003KT 10SM CLR 16/01 A3025 RMK AO1
KLHM 102135Z AUTO 32003KT 10SM CLR 16/01 A3026 RMK AO1
KLHM 102115Z AUTO 00000KT 10SM CLR 16/02 A3027 RMK AO1
KLHM 102055Z AUTO 00000KT 10SM CLR 15/03 A3027 RMK AO1
KLHM 102035Z AUTO 29003KT 10SM CLR 15/02 A3029 RMK AO1
KLHM 102015Z AUTO 31003KT 10SM CLR 14/01 A3030 RMK AO1
KLHM 101955Z AUTO 32004KT 10SM CLR 13/03 A3031 RMK AO1
KLHM 101935Z AUTO 33003KT 10SM CLR 12/05 A3032 RMK AO1
KLHM 101915Z AUTO 00000KT 10SM CLR 12/04 A3032 RMK AO1
KLHM 101855Z AUTO 00000KT 10SM CLR 11/03 A3033 RMK AO1
KLHM 101835Z AUTO 00000KT 10SM CLR 10/04 A3034 RMK AO1
KLHM 101815Z AUTO 00000KT 10SM CLR 08/03 A3034 RMK AO1
KLHM 101755Z AUTO 21003KT 10SM CLR 07/03 A3034 RMK AO1
KLHM 101735Z AUTO 00000KT 10SM CLR 06/03 A3034 RMK AO1
KLHM 101715Z AUTO 00000KT 10SM CLR 05/03 A3033 RMK AO1
KLHM 101655Z AUTO 00000KT 10SM CLR 04/02 A3032 RMK AO1
KLHM 101635Z AUTO 00000KT 10SM CLR 02/01 A3032 RMK AO1
KLHM 101615Z AUTO 00000KT 10SM CLR 00/00 A3032 RMK AO1
KLHM 101555Z AUTO 00000KT 10SM CLR 00/00 A3031 RMK AO1
KLHM 101535Z AUTO 09004KT 10SM CLR M01/M01 A3031 RMK AO1
KLHM 101515Z AUTO 06003KT 10SM CLR M01/M01 A3031 RMK AO1
KLHM 101455Z AUTO 08003KT 10SM CLR M01/M01 A3030 RMK AO1
KLHM 101435Z AUTO 05004KT 10SM CLR M01/M01 A3030 RMK AO1
KLHM 101415Z AUTO 05005KT 10SM CLR M01/M01 A3030 RMK AO1
KLHM 101355Z AUTO 00000KT 10SM CLR M01/M01 A3030 RMK AO1
KLHM 101335Z AUTO 02003KT 10SM CLR M01/M01 A3029 RMK AO1
KLHM 101315Z AUTO 00000KT 10SM CLR 00/00 A3029 RMK AO1
KLHM 101255Z AUTO 00000KT 10SM CLR 00/00 A3030 RMK AO1
KLHM 101235Z AUTO 04004KT 10SM CLR 00/00 A3029 RMK AO1
KLHM 101215Z AUTO 00000KT 10SM CLR 00/00 A3030 RMK AO1
KLHM 101155Z AUTO 05005KT 10SM CLR 00/00 A3030 RMK AO1
KLHM 101135Z AUTO 05005KT 10SM CLR 00/00 A3030 RMK AO1
KLHM 101115Z AUTO 06006KT 10SM CLR 00/00 A3031 RMK AO1
KLHM 101055Z AUTO 07005KT 10SM CLR 00/00 A3031 RMK AO1
KLHM 101035Z AUTO 07005KT 10SM CLR 00/00 A3032 RMK AO1